Time;durP1;ratioP1;P1;durP2;ratioP2;P2;SDS_P1;SDS_P2;PMS_P1;PMS_P2;Temp;Humidity;BMP_temperature;BMP_pressure;BME280_temperature;BME280_humidity;BME280_pressure;Samples;Min_cycle;Max_cycle;Signal;HPM_P1;HPM_P2
2023/04/18 00:02:14;;;;;;;3.73;1.07;;;6.70;99.90;;;;;;6218801;23;20024;-83
2023/04/18 00:04:40;;;;;;;1.15;0.90;;;6.80;99.90;;;;;;6219364;23;20012;-82
2023/04/18 00:07:05;;;;;;;2.07;1.30;;;6.80;99.90;;;;;;6218776;23;20016;-82
2023/04/18 00:09:31;;;;;;;1.63;1.10;;;6.80;99.90;;;;;;6193694;23;20073;-82
2023/04/18 00:11:57;;;;;;;1.53;0.73;;;6.80;99.90;;;;;;6218805;23;20027;-82
2023/04/18 00:14:23;;;;;;;1.90;1.27;;;6.80;99.90;;;;;;6245791;23;20012;-82
2023/04/18 00:16:50;;;;;;;0.77;0.77;;;6.80;99.90;;;;;;6193622;23;20019;-88
2023/04/18 00:19:17;;;;;;;;;;;6.90;99.90;;;;;;6246062;23;20016;-83
2023/04/18 00:21:43;;;;;;;1.17;0.75;;;6.90;99.90;;;;;;6194120;23;20247;-82
2023/04/18 00:24:09;;;;;;;0.80;0.70;;;6.90;99.90;;;;;;6218685;23;20475;-83
2023/04/18 00:26:35;;;;;;;1.42;1.33;;;6.90;99.90;;;;;;6218549;23;20154;-83
2023/04/18 00:29:04;;;;;;;2.90;1.00;;;6.80;99.90;;;;;;6218498;23;20421;-83
2023/04/18 00:31:30;;;;;;;1.00;0.90;;;6.80;99.90;;;;;;6219141;23;20440;-83
2023/04/18 00:33:56;;;;;;;1.90;1.07;;;6.80;99.90;;;;;;6245420;23;20069;-83
2023/04/18 00:36:21;;;;;;;1.47;0.90;;;6.80;99.90;;;;;;6245547;23;20028;-82
2023/04/18 00:38:47;;;;;;;1.33;0.90;;;6.70;99.90;;;;;;6193853;23;20024;-82
2023/04/18 00:41:13;;;;;;;1.30;0.83;;;6.70;99.90;;;;;;6245485;23;20060;-82
2023/04/18 00:43:39;;;;;;;1.43;1.00;;;6.70;99.90;;;;;;6218821;23;20020;-82
2023/04/18 00:46:05;;;;;;;1.57;1.20;;;6.70;99.90;;;;;;6218141;23;20016;-83
2023/04/18 00:48:30;;;;;;;0.98;0.60;;;6.60;99.90;;;;;;6218918;23;20012;-82
2023/04/18 00:50:57;;;;;;;0.70;0.70;;;6.60;99.90;;;;;;6245163;23;20053;-83
2023/04/18 00:53:23;;;;;;;0.97;0.80;;;6.60;99.90;;;;;;6193748;23;20028;-82
2023/04/18 00:55:49;;;;;;;1.02;0.70;;;6.60;99.90;;;;;;6245549;23;20302;-82
2023/04/18 00:58:15;;;;;;;1.88;0.85;;;6.60;99.90;;;;;;6218346;23;20020;-82
2023/04/18 01:00:41;;;;;;;1.10;0.73;;;6.50;99.90;;;;;;6218370;23;20039;-82
2023/04/18 01:03:07;;;;;;;0.77;0.75;;;6.50;99.90;;;;;;6193009;23;20021;-83
2023/04/18 01:05:35;;;;;;;0.67;0.67;;;6.50;99.90;;;;;;6218694;23;20094;-82
2023/04/18 01:08:01;;;;;;;1.27;1.00;;;6.50;99.90;;;;;;6245052;23;20239;-83
2023/04/18 01:10:28;;;;;;;1.05;0.98;;;6.40;99.90;;;;;;6245385;23;20020;-82
2023/04/18 01:13:13;;;;;;;1.13;0.68;;;6.40;99.90;;;;;;6245707;23;20039;-84
2023/04/18 01:15:44;;;;;;;0.95;0.93;;;6.40;99.90;;;;;;6218735;23;20038;-83
2023/04/18 01:18:11;;;;;;;1.65;1.27;;;6.40;99.90;;;;;;6246453;23;20016;-83
2023/04/18 01:20:40;;;;;;;0.98;0.70;;;6.40;99.90;;;;;;6220795;23;20049;-82
2023/04/18 01:23:09;;;;;;;1.90;1.13;;;6.40;99.90;;;;;;6220154;23;20020;-83
2023/04/18 01:25:35;;;;;;;1.33;1.23;;;6.40;99.90;;;;;;6220606;23;20016;-82
2023/04/18 01:28:01;;;;;;;1.20;0.90;;;6.30;99.90;;;;;;6246384;23;20020;-83
2023/04/18 01:30:27;;;;;;;1.48;0.95;;;6.30;99.90;;;;;;6220726;23;20027;-82
2023/04/18 01:32:53;;;;;;;1.17;1.00;;;6.30;99.90;;;;;;6247349;23;20016;-83
2023/04/18 01:35:19;;;;;;;0.73;0.53;;;6.20;99.90;;;;;;6247021;23;20313;-82
2023/04/18 01:37:45;;;;;;;1.77;1.00;;;6.20;99.90;;;;;;6195091;23;20017;-82
2023/04/18 01:40:11;;;;;;;2.40;1.33;;;6.20;99.90;;;;;;6246936;23;20478;-82
2023/04/18 01:42:36;;;;;;;0.47;0.47;;;6.20;99.90;;;;;;6195260;23;20090;-82
2023/04/18 01:45:03;;;;;;;1.63;0.97;;;6.20;99.90;;;;;;6194831;23;20709;-83
2023/04/18 01:47:29;;;;;;;1.33;0.90;;;6.20;99.90;;;;;;6220405;23;20023;-82
2023/04/18 01:49:54;;;;;;;0.80;0.80;;;6.20;99.90;;;;;;6220579;23;20060;-82
2023/04/18 01:52:20;;;;;;;0.87;0.73;;;6.20;99.90;;;;;;6219873;23;20083;-82
2023/04/18 01:54:46;;;;;;;0.53;0.53;;;6.20;99.90;;;;;;6247181;23;20073;-82
2023/04/18 01:57:11;;;;;;;1.60;1.00;;;6.20;99.90;;;;;;6219598;23;20027;-82
2023/04/18 01:59:37;;;;;;;1.43;1.33;;;6.20;99.90;;;;;;6220138;23;20027;-82
2023/04/18 02:02:03;;;;;;;1.47;1.30;;;6.20;99.90;;;;;;6194960;23;20134;-85
2023/04/18 02:04:28;;;;;;;1.70;0.67;;;6.20;99.90;;;;;;6219963;23;20020;-82
2023/04/18 02:06:54;;;;;;;1.33;0.73;;;6.20;99.90;;;;;;6247107;23;20027;-82
2023/04/18 02:09:20;;;;;;;0.80;0.73;;;6.20;99.90;;;;;;6219929;23;20070;-82
2023/04/18 02:11:45;;;;;;;1.57;0.93;;;6.20;99.90;;;;;;6194919;23;20384;-82
2023/04/18 02:14:11;;;;;;;1.20;0.87;;;6.20;99.90;;;;;;6246951;23;20020;-83
2023/04/18 02:16:37;;;;;;;0.40;0.40;;;6.20;99.90;;;;;;6220270;23;20067;-82
2023/04/18 02:19:05;;;;;;;0.93;0.90;;;6.20;99.90;;;;;;6219668;23;20023;-86
2023/04/18 02:21:31;;;;;;;1.25;1.15;;;6.20;99.90;;;;;;6220067;23;20502;-82
2023/04/18 02:23:56;;;;;;;2.07;1.00;;;6.20;99.90;;;;;;6246855;23;20020;-82
2023/04/18 02:26:22;;;;;;;1.57;0.63;;;6.30;99.90;;;;;;6219569;23;20031;-82
2023/04/18 02:28:48;;;;;;;3.47;2.10;;;6.30;99.90;;;;;;6246370;23;20020;-82
2023/04/18 02:31:14;;;;;;;1.93;1.00;;;6.30;99.90;;;;;;6219850;23;20024;-82
2023/04/18 02:33:45;;;;;;;1.48;0.93;;;6.30;99.90;;;;;;6246636;23;20024;-82
2023/04/18 02:36:14;;;;;;;2.15;0.93;;;6.30;99.90;;;;;;6194601;23;20396;-82
2023/04/18 02:38:39;;;;;;;1.42;0.70;;;6.40;99.90;;;;;;6219749;23;20018;-83
2023/04/18 02:41:05;;;;;;;1.10;1.00;;;6.30;99.90;;;;;;6219664;23;20448;-88
2023/04/18 02:43:32;;;;;;;2.20;1.17;;;6.30;99.90;;;;;;6219783;23;20017;-82
2023/04/18 02:45:57;;;;;;;0.68;0.68;;;6.30;99.90;;;;;;6219809;23;20020;-83
2023/04/18 02:48:25;;;;;;;0.73;0.63;;;6.30;99.90;;;;;;6219102;23;20024;-83
2023/04/18 02:50:51;;;;;;;1.50;0.77;;;6.20;99.90;;;;;;6246570;23;20024;-82
2023/04/18 02:53:17;;;;;;;0.83;0.57;;;6.30;99.90;;;;;;6246003;23;20066;-82
2023/04/18 02:55:42;;;;;;;2.80;1.00;;;6.30;99.90;;;;;;6246508;23;20023;-82
2023/04/18 02:58:08;;;;;;;1.30;1.20;;;6.30;99.90;;;;;;6219338;23;20023;-82
2023/04/18 03:00:35;;;;;;;4.67;1.00;;;6.30;99.90;;;;;;6246322;23;20012;-82
2023/04/18 03:03:00;;;;;;;1.38;0.93;;;6.30;99.90;;;;;;6194618;23;20243;-82
2023/04/18 03:05:26;;;;;;;0.97;0.70;;;6.30;99.90;;;;;;6219377;23;20012;-82
2023/04/18 03:07:52;;;;;;;1.97;0.50;;;6.30;99.90;;;;;;6246205;23;20062;-82
2023/04/18 03:10:17;;;;;;;1.43;0.90;;;6.30;99.90;;;;;;6246094;23;20016;-82
2023/04/18 03:12:43;;;;;;;1.03;0.87;;;6.30;99.90;;;;;;6219872;23;20024;-82
2023/04/18 03:15:10;;;;;;;0.97;0.97;;;6.30;99.90;;;;;;6219148;23;20020;-89
2023/04/18 03:17:35;;;;;;;;;;;6.30;99.90;;;;;;6195210;23;20091;-82
2023/04/18 03:20:01;;;;;;;3.28;1.45;;;6.30;99.90;;;;;;6219627;23;20362;-82
2023/04/18 03:22:27;;;;;;;0.53;0.50;;;6.30;99.90;;;;;;6193839;23;20079;-82
2023/04/18 03:24:52;;;;;;;0.43;0.30;;;6.30;99.90;;;;;;6219619;23;20023;-82
2023/04/18 03:27:18;;;;;;;0.93;0.77;;;6.30;99.90;;;;;;6245794;23;20048;-82
2023/04/18 03:29:44;;;;;;;1.57;1.17;;;6.30;99.90;;;;;;6246505;23;20467;-82
2023/04/18 03:32:10;;;;;;;2.10;1.07;;;6.30;99.90;;;;;;6194545;23;20020;-82
2023/04/18 03:34:36;;;;;;;1.13;1.02;;;6.30;99.90;;;;;;6219306;23;20023;-82
2023/04/18 03:37:01;;;;;;;0.73;0.70;;;6.30;99.90;;;;;;6218404;23;20052;-82
2023/04/18 03:39:27;;;;;;;2.13;0.90;;;6.30;99.90;;;;;;6218798;23;20027;-83
2023/04/18 03:41:53;;;;;;;2.37;1.07;;;6.30;99.90;;;;;;6219770;23;20016;-83
2023/04/18 03:44:18;;;;;;;2.37;1.00;;;6.40;99.90;;;;;;6245720;23;20016;-83
2023/04/18 03:46:44;;;;;;;2.20;1.03;;;6.40;99.90;;;;;;6193700;23;20062;-83
2023/04/18 03:49:10;;;;;;;1.47;1.00;;;6.30;99.90;;;;;;6219657;23;20398;-82
2023/04/18 03:51:43;;;;;;;5.53;2.93;;;6.40;99.90;;;;;;6218399;23;20039;-82
2023/04/18 03:54:09;;;;;;;0.75;0.75;;;6.30;99.90;;;;;;6194279;23;20016;-82
2023/04/18 03:56:35;;;;;;;0.90;0.57;;;6.30;99.90;;;;;;6218734;23;20089;-82
2023/04/18 03:59:00;;;;;;;1.65;1.13;;;6.30;99.90;;;;;;6218819;23;20019;-82
2023/04/18 04:01:26;;;;;;;1.87;0.60;;;6.30;99.90;;;;;;6218538;23;20061;-82
2023/04/18 04:03:52;;;;;;;1.20;0.63;;;6.30;99.90;;;;;;6245882;23;20012;-82
2023/04/18 04:06:18;;;;;;;1.50;1.40;;;6.30;99.90;;;;;;6218693;23;20070;-83
2023/04/18 04:08:43;;;;;;;1.13;0.93;;;6.20;99.90;;;;;;6194406;23;20020;-82
2023/04/18 04:11:09;;;;;;;0.87;0.70;;;6.20;99.90;;;;;;6245493;23;20038;-82
2023/04/18 04:13:35;;;;;;;0.87;0.50;;;6.20;99.90;;;;;;6218712;23;20024;-82
2023/04/18 04:16:01;;;;;;;0.60;0.60;;;6.20;99.90;;;;;;6219288;23;20090;-82
2023/04/18 04:18:30;;;;;;;2.40;0.95;;;6.20;99.90;;;;;;6218618;23;20395;-82
2023/04/18 04:20:59;;;;;;;1.42;1.08;;;6.20;99.90;;;;;;6194878;23;20444;-82
2023/04/18 04:23:25;;;;;;;1.15;1.00;;;6.20;99.90;;;;;;6218679;23;20027;-82
2023/04/18 04:25:55;;;;;;;1.85;0.55;;;6.20;99.90;;;;;;6218944;23;20020;-82
2023/04/18 04:28:21;;;;;;;0.60;0.60;;;6.20;99.90;;;;;;6218120;23;20023;-83
2023/04/18 04:30:51;;;;;;;1.27;1.15;;;6.20;99.90;;;;;;6244651;23;20520;-83
2023/04/18 04:33:24;;;;;;;1.48;0.60;;;6.20;99.90;;;;;;6219078;23;20013;-85
2023/04/18 04:35:51;;;;;;;1.83;0.65;;;6.20;99.90;;;;;;6218864;23;20098;-82
2023/04/18 04:38:18;;;;;;;2.50;0.88;;;6.20;99.90;;;;;;6245763;23;20020;-82
2023/04/18 04:40:45;;;;;;;2.30;1.08;;;6.20;99.90;;;;;;6245488;23;20016;-82
2023/04/18 04:43:14;;;;;;;0.52;0.40;;;6.60;99.90;;;;;;6245565;23;20023;-82
2023/04/18 04:45:43;;;;;;;2.90;1.42;;;6.20;99.90;;;;;;6218217;23;20016;-82
2023/04/18 04:48:09;;;;;;;2.80;0.98;;;6.20;99.90;;;;;;6245893;23;20016;-82
2023/04/18 04:50:37;;;;;;;1.55;0.82;;;6.30;99.90;;;;;;6218340;23;20024;-82
2023/04/18 04:53:10;;;;;;;0.73;0.73;;;6.30;99.90;;;;;;6218537;23;20016;-82
2023/04/18 04:55:37;;;;;;;0.50;0.50;;;6.30;99.90;;;;;;6245156;23;20020;-82
2023/04/18 04:58:03;;;;;;;;;;;6.30;99.90;;;;;;6194378;23;20013;-82
2023/04/18 05:00:28;;;;;;;1.10;0.85;;;6.30;99.90;;;;;;6192846;23;19996;-83
2023/04/18 05:02:56;;;;;;;2.43;1.67;;;6.30;99.90;;;;;;6218735;23;20341;-82
2023/04/18 05:05:22;;;;;;;0.60;0.60;;;6.40;99.90;;;;;;6245418;23;20020;-88
2023/04/18 05:07:47;;;;;;;0.80;0.80;;;6.30;99.90;;;;;;6245282;23;20455;-82
2023/04/18 05:10:13;;;;;;;1.07;0.43;;;6.40;99.90;;;;;;6193894;23;20070;-82
2023/04/18 05:12:39;;;;;;;0.90;0.80;;;6.40;99.90;;;;;;6218274;23;20020;-82
2023/04/18 05:15:05;;;;;;;1.83;0.80;;;6.40;99.90;;;;;;6245214;23;20055;-80
2023/04/18 05:17:31;;;;;;;0.88;0.32;;;6.40;99.90;;;;;;6219858;23;20042;-82
2023/04/18 05:19:56;;;;;;;1.03;0.93;;;6.50;99.90;;;;;;6192890;23;20095;-80
2023/04/18 05:22:22;;;;;;;0.77;0.60;;;6.50;99.90;;;;;;6193619;23;20087;-82
2023/04/18 05:24:48;;;;;;;1.00;0.87;;;6.50;99.90;;;;;;6218144;23;20013;-80
2023/04/18 05:27:14;;;;;;;2.03;1.30;;;6.50;99.90;;;;;;6218318;23;20025;-81
2023/04/18 05:29:39;;;;;;;1.00;0.77;;;6.50;99.90;;;;;;6218378;23;20384;-81
2023/04/18 05:32:05;;;;;;;0.70;0.70;;;6.50;99.90;;;;;;6218568;23;20069;-82
2023/04/18 05:34:34;;;;;;;0.53;0.53;;;6.60;99.90;;;;;;6244957;23;20077;-83
2023/04/18 05:37:00;;;;;;;0.73;0.47;;;6.60;99.90;;;;;;6245336;23;20105;-83
2023/04/18 05:39:26;;;;;;;1.67;0.80;;;6.60;99.90;;;;;;6217876;23;20020;-86
2023/04/18 05:41:52;;;;;;;1.25;1.00;;;6.60;99.90;;;;;;6218509;23;20020;-83
2023/04/18 05:44:18;;;;;;;0.83;0.83;;;6.60;99.90;;;;;;6193445;23;20095;-83
2023/04/18 05:46:45;;;;;;;0.50;0.50;;;6.70;99.90;;;;;;6187155;23;20024;-84
2023/04/18 05:49:11;;;;;;;2.00;1.27;;;6.70;99.90;;;;;;6215424;23;20021;-84
2023/04/18 05:51:36;;;;;;;0.70;0.70;;;6.70;99.90;;;;;;6214646;23;20027;-86
2023/04/18 05:54:03;;;;;;;1.27;0.97;;;6.70;99.90;;;;;;6188102;23;20102;-84
2023/04/18 05:56:29;;;;;;;0.60;0.60;;;6.70;99.90;;;;;;6213388;23;20017;-89
2023/04/18 05:58:55;;;;;;;1.17;0.60;;;6.80;99.90;;;;;;6213328;23;20062;-84
2023/04/18 06:01:21;;;;;;;1.27;1.00;;;6.90;99.90;;;;;;6213545;23;20016;-83
2023/04/18 06:03:46;;;;;;;1.33;0.50;;;6.90;99.90;;;;;;6215101;23;20445;-83
2023/04/18 06:06:12;;;;;;;0.97;0.80;;;6.90;99.90;;;;;;6216836;23;20095;-83
2023/04/18 06:08:39;;;;;;;1.47;0.87;;;6.90;99.90;;;;;;6189564;23;20024;-84
2023/04/18 06:11:05;;;;;;;2.42;0.93;;;7.00;99.90;;;;;;6215047;23;20016;-83
2023/04/18 06:13:31;;;;;;;2.90;1.50;;;7.10;99.90;;;;;;6213869;23;20063;-89
2023/04/18 06:15:57;;;;;;;1.58;0.75;;;7.00;99.90;;;;;;6190044;23;20027;-85
2023/04/18 06:18:22;;;;;;;2.07;1.20;;;7.10;99.90;;;;;;6215133;23;20091;-85
2023/04/18 06:20:48;;;;;;;1.00;1.00;;;7.10;99.90;;;;;;6215982;23;20453;-84
2023/04/18 06:23:14;;;;;;;1.40;0.80;;;7.10;99.90;;;;;;6216732;23;20021;-82
2023/04/18 06:25:41;;;;;;;1.77;1.15;;;7.20;99.90;;;;;;6189714;23;20021;-85
2023/04/18 06:28:07;;;;;;;2.30;1.13;;;7.20;99.90;;;;;;6216601;23;20052;-83
2023/04/18 06:30:33;;;;;;;1.63;1.20;;;7.30;99.90;;;;;;6213563;23;20063;-87
2023/04/18 06:32:58;;;;;;;3.33;1.20;;;7.40;99.90;;;;;;6189611;23;20020;-86
2023/04/18 06:35:30;;;;;;;1.47;0.80;;;7.50;99.90;;;;;;6215974;23;20441;-86
2023/04/18 06:37:56;;;;;;;0.70;0.68;;;7.60;99.90;;;;;;6214754;23;20009;-87
2023/04/18 06:40:22;;;;;;;1.73;1.37;;;7.80;99.90;;;;;;6215206;23;20091;-86
2023/04/18 06:42:47;;;;;;;1.47;1.37;;;7.70;99.90;;;;;;6189201;23;20134;-86
2023/04/18 06:45:13;;;;;;;1.40;1.30;;;7.80;99.90;;;;;;6189815;23;20012;-85
2023/04/18 06:47:39;;;;;;;1.57;1.27;;;7.90;99.90;;;;;;6232552;23;20019;-86
2023/04/18 06:50:06;;;;;;;2.35;1.02;;;7.90;99.90;;;;;;6219956;23;20099;-87
2023/04/18 06:52:32;;;;;;;1.65;1.00;;;8.00;99.90;;;;;;6219808;23;20016;-86
2023/04/18 06:54:58;;;;;;;2.03;1.03;;;8.10;99.90;;;;;;6219275;23;20027;-86
2023/04/18 06:57:24;;;;;;;1.20;1.00;;;8.10;99.90;;;;;;6246339;23;20027;-89
2023/04/18 06:59:50;;;;;;;1.38;1.27;;;8.10;99.90;;;;;;6194070;23;20020;-88
2023/04/18 07:02:16;;;;;;;1.73;1.40;;;8.00;99.90;;;;;;6247078;23;20455;-87
2023/04/18 07:04:42;;;;;;;1.77;0.77;;;8.10;99.90;;;;;;6194542;23;20455;-88
2023/04/18 07:07:07;;;;;;;1.37;1.27;;;8.10;99.90;;;;;;6194644;23;20008;-86
2023/04/18 07:09:33;;;;;;;2.13;1.00;;;8.10;99.90;;;;;;6219658;23;20024;-87
2023/04/18 07:11:59;;;;;;;2.03;1.10;;;8.10;99.90;;;;;;6246264;23;20027;-88
2023/04/18 07:14:25;;;;;;;2.07;1.50;;;8.10;99.90;;;;;;6219384;23;20019;-86
2023/04/18 07:16:50;;;;;;;0.97;0.70;;;8.10;99.90;;;;;;6219192;23;20022;-85
2023/04/18 07:19:16;;;;;;;1.13;1.03;;;8.20;99.90;;;;;;6218988;23;20097;-85
2023/04/18 07:21:43;;;;;;;0.67;0.60;;;8.20;99.90;;;;;;6192944;23;20024;-86
2023/04/18 07:24:10;;;;;;;0.90;0.88;;;8.30;99.90;;;;;;6246286;23;20239;-86
2023/04/18 07:26:37;;;;;;;1.33;1.27;;;8.40;99.90;;;;;;6194726;23;20020;-88
2023/04/18 07:29:03;;;;;;;2.80;0.80;;;8.70;99.90;;;;;;6246412;23;20012;-86
2023/04/18 07:31:30;;;;;;;1.42;1.08;;;8.90;99.90;;;;;;6246378;23;20468;-86
2023/04/18 07:33:56;;;;;;;3.38;0.95;;;9.00;99.90;;;;;;6219055;23;20399;-86
2023/04/18 07:36:22;;;;;;;1.95;0.90;;;9.10;99.90;;;;;;6219606;23;20051;-86
2023/04/18 07:38:48;;;;;;;2.50;1.35;;;9.20;99.90;;;;;;6246061;23;20065;-86
2023/04/18 07:41:14;;;;;;;1.27;1.00;;;9.20;99.90;;;;;;6246403;23;20093;-86
2023/04/18 07:43:40;;;;;;;0.50;0.50;;;9.40;99.90;;;;;;6219558;23;20031;-92
2023/04/18 07:46:06;;;;;;;1.43;1.00;;;10.00;99.90;;;;;;6194351;23;20403;-86
2023/04/18 07:48:32;;;;;;;1.33;0.80;;;10.50;99.90;;;;;;6214422;23;20020;-86
2023/04/18 07:50:57;;;;;;;1.43;0.90;;;11.00;99.90;;;;;;6216635;23;20146;-85
2023/04/18 07:53:23;;;;;;;1.38;0.73;;;11.50;99.90;;;;;;6215948;23;20027;-87
2023/04/18 07:55:49;;;;;;;0.75;0.75;;;11.90;99.90;;;;;;6215287;23;20016;-88
2023/04/18 07:58:15;;;;;;;1.88;1.10;;;12.20;99.90;;;;;;6214412;23;20070;-88
2023/04/18 08:00:43;;;;;;;0.50;0.50;;;12.40;99.90;;;;;;6213981;23;20476;-87
2023/04/18 08:03:10;;;;;;;0.73;0.70;;;12.50;99.90;;;;;;6189277;23;20082;-88
2023/04/18 08:05:40;;;;;;;0.95;0.90;;;12.80;99.90;;;;;;6215696;23;20012;-87
2023/04/18 08:08:08;;;;;;;1.77;1.05;;;12.70;99.90;;;;;;6215298;23;20528;-87
2023/04/18 08:10:34;;;;;;;1.00;0.90;;;12.80;99.90;;;;;;6215331;23;20020;-88
2023/04/18 08:13:00;;;;;;;0.80;0.70;;;12.80;99.90;;;;;;6188906;23;20025;-87
2023/04/18 08:15:31;;;;;;;1.75;1.08;;;12.60;99.90;;;;;;6214389;23;20442;-87
2023/04/18 08:17:57;;;;;;;1.67;1.55;;;12.40;99.90;;;;;;6190252;23;20075;-88
2023/04/18 08:20:23;;;;;;;1.27;0.95;;;12.10;99.90;;;;;;6215384;23;20472;-87
2023/04/18 08:22:49;;;;;;;3.13;1.55;;;11.60;99.90;;;;;;6188514;23;20020;-88
2023/04/18 08:25:15;;;;;;;2.13;1.48;;;12.00;99.90;;;;;;6215728;23;20017;-87
2023/04/18 08:27:54;;;;;;;2.00;1.08;;;11.90;99.90;;;;;;6213570;23;20025;-88
2023/04/18 08:30:20;;;;;;;0.60;0.52;;;11.80;99.90;;;;;;6214601;23;20017;-88
2023/04/18 08:32:46;;;;;;;1.10;1.00;;;11.70;99.90;;;;;;6214151;23;20079;-88
2023/04/18 08:35:12;;;;;;;1.00;0.93;;;11.70;99.90;;;;;;6188599;23;20495;-88
2023/04/18 08:37:38;;;;;;;1.17;0.73;;;11.50;99.90;;;;;;6188927;23;20020;-88
2023/04/18 08:40:06;;;;;;;1.67;0.70;;;11.50;99.90;;;;;;6187978;23;20310;-88
2023/04/18 08:42:32;;;;;;;1.58;1.25;;;11.50;99.90;;;;;;6215457;23;20021;-87
2023/04/18 08:45:01;;;;;;;0.65;0.65;;;11.60;99.90;;;;;;6163866;23;20449;-88
2023/04/18 08:47:30;;;;;;;1.67;0.93;;;11.60;99.90;;;;;;6189347;23;20022;-88
2023/04/18 08:49:57;;;;;;;0.80;0.52;;;11.90;99.90;;;;;;6217354;23;20016;-88
2023/04/18 08:52:26;;;;;;;0.70;0.70;;;12.30;99.90;;;;;;6189229;23;20320;-88
2023/04/18 08:54:52;;;;;;;0.73;0.68;;;12.90;99.90;;;;;;6163092;23;20031;-88
2023/04/18 08:57:26;;;;;;;1.15;0.75;;;13.20;99.90;;;;;;6213780;23;20009;-89
2023/04/18 08:59:52;;;;;;;0.70;0.70;;;13.20;99.90;;;;;;6213528;23;20027;-90
2023/04/18 09:02:21;;;;;;;1.23;0.77;;;13.20;99.90;;;;;;6188823;23;20012;-88
2023/04/18 09:04:51;;;;;;;1.70;1.02;;;13.00;99.90;;;;;;6188681;23;20021;-88
2023/04/18 09:07:29;;;;;;;1.83;0.98;;;13.00;99.90;;;;;;6213773;23;20039;-88
2023/04/18 09:09:56;;;;;;;0.95;0.75;;;13.20;99.90;;;;;;6213668;23;20092;-87
2023/04/18 09:12:25;;;;;;;0.57;0.57;;;13.40;99.90;;;;;;6213820;23;20016;-87
2023/04/18 09:14:55;;;;;;;1.38;0.40;;;13.60;99.90;;;;;;6215293;23;20013;-88
2023/04/18 09:17:37;;;;;;;0.30;0.30;;;13.90;99.90;;;;;;6213985;23;20074;-85
2023/04/18 09:20:04;;;;;;;0.63;0.52;;;14.20;99.90;;;;;;6214905;23;20099;-87
2023/04/18 09:22:49;;;;;;;1.38;0.47;;;14.30;99.90;;;;;;6213838;23;20028;-87
2023/04/18 09:25:24;;;;;;;1.23;0.80;;;14.20;99.90;;;;;;6214311;23;20012;-87
2023/04/18 09:27:51;;;;;;;2.10;1.20;;;14.10;99.90;;;;;;6213337;23;20028;-87
2023/04/18 09:30:39;;;;;;;0.50;0.47;;;14.20;99.90;;;;;;6188449;23;20032;-86
2023/04/18 09:33:11;;;;;;;0.88;0.88;;;14.20;99.90;;;;;;6212915;23;20096;-87
2023/04/18 09:35:37;;;;;;;0.95;0.85;;;14.30;99.90;;;;;;6213656;23;20017;-86
2023/04/18 09:38:04;;;;;;;0.73;0.73;;;14.50;99.90;;;;;;6215281;23;20070;-87
2023/04/18 09:40:30;;;;;;;1.05;0.70;;;14.60;99.90;;;;;;6215512;23;20013;-87
2023/04/18 09:42:59;;;;;;;0.47;0.47;;;14.50;99.90;;;;;;6215191;23;20027;-88
2023/04/18 09:45:25;;;;;;;0.65;0.50;;;14.80;99.90;;;;;;6190366;23;20096;-87
2023/04/18 09:47:52;;;;;;;0.82;0.82;;;15.00;99.90;;;;;;6214698;23;20417;-88
2023/04/18 09:50:19;;;;;;;0.90;0.90;;;15.10;99.90;;;;;;6189670;23;20028;-87
2023/04/18 09:52:46;;;;;;;0.52;0.52;;;15.10;99.90;;;;;;6216822;23;20449;-87
2023/04/18 09:55:15;;;;;;;2.45;1.25;;;15.10;99.90;;;;;;6215027;23;20017;-87
2023/04/18 09:57:44;;;;;;;0.75;0.73;;;15.00;99.90;;;;;;6216993;23;20020;-92
2023/04/18 10:00:25;;;;;;;1.08;1.02;;;15.10;99.90;;;;;;6216981;23;20465;-86
2023/04/18 10:03:07;;;;;;;0.70;0.70;;;15.20;99.90;;;;;;6215082;23;20453;-85
2023/04/18 10:05:35;;;;;;;1.17;0.75;;;15.00;99.90;;;;;;6215728;23;20021;-85
2023/04/18 10:08:02;;;;;;;1.23;0.90;;;14.90;99.90;;;;;;6190112;23;20314;-86
2023/04/18 10:10:28;;;;;;;0.60;0.60;;;14.80;99.90;;;;;;6215121;23;20070;-88
2023/04/18 10:12:58;;;;;;;1.42;0.70;;;14.70;99.90;;;;;;6190285;23;20028;-88
2023/04/18 10:15:26;;;;;;;0.55;0.55;;;14.60;99.90;;;;;;6190000;23;20543;-88
2023/04/18 10:18:01;;;;;;;1.10;0.73;;;14.90;99.90;;;;;;6215328;23;20028;-88
2023/04/18 10:20:29;;;;;;;0.68;0.68;;;15.10;99.90;;;;;;6215411;23;20017;-87
2023/04/18 10:22:56;;;;;;;0.90;0.60;;;15.30;99.90;;;;;;6216795;23;20013;-88
2023/04/18 10:25:37;;;;;;;1.65;1.00;;;15.40;99.90;;;;;;6216131;23;20341;-87
2023/04/18 10:28:06;;;;;;;0.80;0.75;;;15.40;99.90;;;;;;6216236;23;20341;-88
2023/04/18 10:30:41;;;;;;;2.40;1.10;;;15.40;99.90;;;;;;6216895;23;20096;-88
2023/04/18 10:33:28;;;;;;;1.17;0.63;;;15.60;99.90;;;;;;6214376;23;20019;-88
2023/04/18 10:36:13;;;;;;;0.85;0.85;;;15.60;99.90;;;;;;6215316;23;20017;-87
2023/04/18 10:38:48;;;;;;;0.70;0.50;;;15.40;99.90;;;;;;6215345;23;20020;-88
2023/04/18 10:41:21;;;;;;;1.13;1.02;;;15.50;99.90;;;;;;6214571;23;20095;-88
2023/04/18 10:44:14;;;;;;;1.67;1.15;;;15.60;99.90;;;;;;6189645;23;20480;-88
2023/04/18 10:46:52;;;;;;;0.82;0.63;;;15.70;99.90;;;;;;6214812;23;20433;-87
2023/04/18 10:49:25;;;;;;;1.80;0.75;;;15.90;99.90;;;;;;6214389;23;20035;-84
2023/04/18 10:51:58;;;;;;;1.13;0.60;;;16.00;99.90;;;;;;6214746;23;20031;-86
2023/04/18 10:54:44;;;;;;;1.00;0.90;;;16.30;99.90;;;;;;6216406;23;20017;-86
2023/04/18 10:57:11;;;;;;;1.25;1.15;;;16.40;99.90;;;;;;6193949;23;20020;-87
2023/04/18 10:59:42;;;;;;;1.35;0.85;;;16.30;99.90;;;;;;6216314;23;20139;-87
2023/04/18 11:02:24;;;;;;;1.23;1.13;;;16.40;99.90;;;;;;6216502;23;20016;-87
2023/04/18 11:05:04;;;;;;;0.70;0.70;;;16.30;99.90;;;;;;6216168;23;20099;-90
2023/04/18 11:07:41;;;;;;;1.75;1.10;;;16.50;99.90;;;;;;6189213;23;20017;-87
2023/04/18 11:10:08;;;;;;;0.82;0.70;;;16.60;99.90;;;;;;6215752;23;20511;-89
2023/04/18 11:12:36;;;;;;;0.95;0.95;;;16.70;99.90;;;;;;6216530;23;20023;-93
2023/04/18 11:15:08;;;;;;;1.20;1.00;;;16.90;99.90;;;;;;6215549;23;20031;-93
2023/04/18 11:17:34;;;;;;;2.10;0.88;;;17.10;99.90;;;;;;6216135;23;20035;-93
2023/04/18 11:20:07;;;;;;;2.17;1.02;;;17.20;99.90;;;;;;6190590;23;20027;-92
2023/04/18 11:22:48;;;;;;;1.52;1.10;;;17.20;99.90;;;;;;6190383;23;20087;-92
2023/04/18 11:25:21;;;;;;;1.88;0.93;;;17.20;99.90;;;;;;6216278;23;20023;-92
2023/04/18 11:27:50;;;;;;;2.28;1.35;;;17.00;99.90;;;;;;6190483;23;20016;-94
2023/04/18 11:30:16;;;;;;;1.02;0.90;;;16.80;99.90;;;;;;6213933;23;20396;-90
2023/04/18 11:32:42;;;;;;;1.98;1.58;;;16.90;99.90;;;;;;6214538;23;20024;-86
2023/04/18 11:35:10;;;;;;;1.08;0.93;;;17.00;99.90;;;;;;6214969;23;20074;-89
2023/04/18 11:37:37;;;;;;;1.83;1.10;;;16.90;99.90;;;;;;6190080;23;20028;-86
2023/04/18 11:40:05;;;;;;;1.83;1.40;;;16.90;99.90;;;;;;6190239;23;20016;-87
2023/04/18 11:42:33;;;;;;;1.55;0.90;;;17.00;99.90;;;;;;6141328;23;20023;-87
2023/04/18 11:44:59;;;;;;;0.90;0.85;;;17.00;99.90;;;;;;6189950;23;20017;-87
2023/04/18 11:47:33;;;;;;;1.35;1.25;;;17.20;99.90;;;;;;6218615;23;20438;-87
2023/04/18 11:50:01;;;;;;;2.33;0.88;;;17.20;98.80;;;;;;6220017;23;20510;-87
2023/04/18 11:52:28;;;;;;;0.80;0.80;;;17.20;99.90;;;;;;6219568;23;20023;-85
2023/04/18 11:55:11;;;;;;;1.50;1.13;;;17.20;99.90;;;;;;6195014;23;20016;-89
2023/04/18 11:57:37;;;;;;;1.33;1.05;;;17.20;99.90;;;;;;6194631;23;20020;-85
2023/04/18 12:00:06;;;;;;;2.58;1.00;;;17.10;99.90;;;;;;6219364;23;20016;-85
2023/04/18 12:02:44;;;;;;;0.95;0.88;;;17.10;99.90;;;;;;6194566;23;20024;-86
2023/04/18 12:05:13;;;;;;;1.38;0.80;;;17.30;97.30;;;;;;6245830;23;20467;-86
2023/04/18 12:07:41;;;;;;;0.85;0.85;;;17.50;99.00;;;;;;6194193;23;20428;-86
2023/04/18 12:10:09;;;;;;;1.15;1.05;;;17.50;98.30;;;;;;6246176;23;20051;-85
2023/04/18 12:12:35;;;;;;;1.30;1.02;;;17.50;99.90;;;;;;6194012;23;20467;-86
2023/04/18 12:15:04;;;;;;;1.23;1.10;;;17.50;96.90;;;;;;6194398;23;20070;-85
2023/04/18 12:17:30;;;;;;;1.73;0.68;;;17.40;99.10;;;;;;6218933;23;20051;-86
2023/04/18 12:20:00;;;;;;;1.02;0.95;;;17.60;97.50;;;;;;6219214;23;20055;-86
2023/04/18 12:22:56;;;;;;;2.67;1.00;;;17.80;98.30;;;;;;6245745;23;20071;-86
2023/04/18 12:25:27;;;;;;;1.15;1.05;;;17.80;95.70;;;;;;6149265;23;20024;-86
2023/04/18 12:28:00;;;;;;;1.15;1.05;;;17.60;99.80;;;;;;6219612;23;20317;-86
2023/04/18 12:30:28;;;;;;;1.15;1.05;;;17.50;97.10;;;;;;6219077;23;20020;-86
2023/04/18 12:32:59;;;;;;;2.10;1.33;;;17.50;99.80;;;;;;6245968;23;20027;-86
2023/04/18 12:35:26;;;;;;;2.20;0.95;;;17.30;97.10;;;;;;6219029;23;20106;-86
2023/04/18 12:37:54;;;;;;;1.00;1.00;;;17.50;98.60;;;;;;6219138;23;20016;-86
2023/04/18 12:40:21;;;;;;;0.95;0.95;;;17.60;99.30;;;;;;6218834;23;20019;-86
2023/04/18 12:42:48;;;;;;;1.50;1.17;;;17.70;97.00;;;;;;6194153;23;20027;-86
2023/04/18 12:45:15;;;;;;;0.90;0.70;;;17.60;98.40;;;;;;6193949;23;20440;-86
2023/04/18 12:47:43;;;;;;;0.80;0.80;;;17.70;97.70;;;;;;6245344;23;20020;-86
2023/04/18 12:50:16;;;;;;;1.15;0.90;;;17.90;99.90;;;;;;6245980;23;20027;-86
2023/04/18 12:52:43;;;;;;;1.80;1.08;;;17.90;97.20;;;;;;6246309;23;20031;-85
2023/04/18 12:55:10;;;;;;;1.58;0.93;;;17.90;99.70;;;;;;6219173;23;20024;-86
2023/04/18 12:57:36;;;;;;;0.52;0.45;;;17.90;99.90;;;;;;6245561;23;20099;-86